sensor_id;sensor_type;location;lat;lon;timestamp;P1;durP1;ratioP1;P2;durP2;ratioP2
22603;SDS011;11469;49.024;8.246;2023-02-15T00:01:45;124.18;;;44.22;;
22603;SDS011;11469;49.024;8.246;2023-02-15T00:04:15;149.00;;;46.20;;
22603;SDS011;11469;49.024;8.246;2023-02-15T00:07:13;138.70;;;43.85;;
22603;SDS011;11469;49.024;8.246;2023-02-15T00:09:40;139.02;;;43.15;;
22603;SDS011;11469;49.024;8.246;2023-02-15T00:12:05;110.03;;;41.08;;
22603;SDS011;11469;49.024;8.246;2023-02-15T00:14:31;125.93;;;45.08;;
22603;SDS011;11469;49.024;8.246;2023-02-15T00:16:56;123.90;;;42.20;;
22603;SDS011;11469;49.024;8.246;2023-02-15T00:19:24;143.05;;;45.15;;
22603;SDS011;11469;49.024;8.246;2023-02-15T00:21:50;142.07;;;46.38;;
22603;SDS011;11469;49.024;8.246;2023-02-15T00:24:16;129.65;;;43.72;;
22603;SDS011;11469;49.024;8.246;2023-02-15T00:26:43;167.90;;;45.63;;
22603;SDS011;11469;49.024;8.246;2023-02-15T00:29:09;121.50;;;43.10;;
22603;SDS011;11469;49.024;8.246;2023-02-15T00:31:36;115.07;;;43.42;;
22603;SDS011;11469;49.024;8.246;2023-02-15T00:34:02;130.35;;;47.58;;
22603;SDS011;11469;49.024;8.246;2023-02-15T00:36:31;126.97;;;44.75;;
22603;SDS011;11469;49.024;8.246;2023-02-15T00:38:56;132.80;;;45.90;;
22603;SDS011;11469;49.024;8.246;2023-02-15T00:41:22;140.00;;;46.15;;
22603;SDS011;11469;49.024;8.246;2023-02-15T00:43:47;138.05;;;46.13;;
22603;SDS011;11469;49.024;8.246;2023-02-15T00:46:12;135.63;;;45.15;;
22603;SDS011;11469;49.024;8.246;2023-02-15T00:48:38;177.38;;;47.08;;
22603;SDS011;11469;49.024;8.246;2023-02-15T00:51:03;128.90;;;44.28;;
22603;SDS011;11469;49.024;8.246;2023-02-15T00:53:28;139.55;;;43.95;;
22603;SDS011;11469;49.024;8.246;2023-02-15T00:55:54;121.00;;;42.08;;
22603;SDS011;11469;49.024;8.246;2023-02-15T00:58:19;137.43;;;43.53;;
22603;SDS011;11469;49.024;8.246;2023-02-15T01:00:45;127.10;;;41.05;;
22603;SDS011;11469;49.024;8.246;2023-02-15T01:03:12;134.43;;;41.67;;
22603;SDS011;11469;49.024;8.246;2023-02-15T01:05:39;115.20;;;40.20;;
22603;SDS011;11469;49.024;8.246;2023-02-15T01:08:05;121.65;;;40.65;;
22603;SDS011;11469;49.024;8.246;2023-02-15T01:10:31;144.35;;;40.22;;
22603;SDS011;11469;49.024;8.246;2023-02-15T01:12:59;142.95;;;42.88;;
22603;SDS011;11469;49.024;8.246;2023-02-15T01:15:24;119.50;;;41.10;;
22603;SDS011;11469;49.024;8.246;2023-02-15T01:17:50;126.88;;;43.72;;
22603;SDS011;11469;49.024;8.246;2023-02-15T01:20:22;111.63;;;39.35;;
22603;SDS011;11469;49.024;8.246;2023-02-15T01:22:50;107.25;;;39.50;;
22603;SDS011;11469;49.024;8.246;2023-02-15T01:25:16;122.43;;;40.92;;
22603;SDS011;11469;49.024;8.246;2023-02-15T01:27:42;116.00;;;43.30;;
22603;SDS011;11469;49.024;8.246;2023-02-15T01:30:08;144.02;;;39.67;;
22603;SDS011;11469;49.024;8.246;2023-02-15T01:32:34;110.20;;;38.40;;
22603;SDS011;11469;49.024;8.246;2023-02-15T01:35:00;118.05;;;41.13;;
22603;SDS011;11469;49.024;8.246;2023-02-15T01:37:25;128.43;;;43.17;;
22603;SDS011;11469;49.024;8.246;2023-02-15T01:39:51;105.47;;;39.42;;
22603;SDS011;11469;49.024;8.246;2023-02-15T01:42:23;105.85;;;40.72;;
22603;SDS011;11469;49.024;8.246;2023-02-15T01:44:53;108.45;;;38.80;;
22603;SDS011;11469;49.024;8.246;2023-02-15T01:47:41;98.68;;;38.55;;
22603;SDS011;11469;49.024;8.246;2023-02-15T01:50:13;110.07;;;40.03;;
22603;SDS011;11469;49.024;8.246;2023-02-15T01:55:39;112.10;;;41.00;;
22603;SDS011;11469;49.024;8.246;2023-02-15T01:58:08;104.90;;;38.92;;
22603;SDS011;11469;49.024;8.246;2023-02-15T02:00:34;112.18;;;40.45;;
22603;SDS011;11469;49.024;8.246;2023-02-15T02:03:00;111.90;;;40.70;;
22603;SDS011;11469;49.024;8.246;2023-02-15T02:05:28;110.70;;;38.80;;
22603;SDS011;11469;49.024;8.246;2023-02-15T02:07:56;98.90;;;37.83;;
22603;SDS011;11469;49.024;8.246;2023-02-15T02:10:23;101.47;;;39.13;;
22603;SDS011;11469;49.024;8.246;2023-02-15T02:12:54;112.25;;;38.85;;
22603;SDS011;11469;49.024;8.246;2023-02-15T02:15:29;113.85;;;38.67;;
22603;SDS011;11469;49.024;8.246;2023-02-15T02:43:48;88.13;;;34.50;;
22603;SDS011;11469;49.024;8.246;2023-02-15T02:46:27;98.00;;;35.60;;
22603;SDS011;11469;49.024;8.246;2023-02-15T02:48:59;88.32;;;35.13;;
22603;SDS011;11469;49.024;8.246;2023-02-15T02:51:26;93.43;;;35.38;;
22603;SDS011;11469;49.024;8.246;2023-02-15T02:53:52;99.97;;;37.22;;
22603;SDS011;11469;49.024;8.246;2023-02-15T02:56:24;85.43;;;33.53;;
22603;SDS011;11469;49.024;8.246;2023-02-15T02:59:18;99.93;;;38.03;;
22603;SDS011;11469;49.024;8.246;2023-02-15T03:01:46;107.35;;;33.97;;
22603;SDS011;11469;49.024;8.246;2023-02-15T03:04:21;97.20;;;35.20;;
22603;SDS011;11469;49.024;8.246;2023-02-15T03:07:03;108.60;;;33.70;;
22603;SDS011;11469;49.024;8.246;2023-02-15T03:09:33;86.28;;;34.17;;
22603;SDS011;11469;49.024;8.246;2023-02-15T03:14:48;108.95;;;34.38;;
22603;SDS011;11469;49.024;8.246;2023-02-15T03:17:21;84.55;;;32.22;;
22603;SDS011;11469;49.024;8.246;2023-02-15T03:19:49;77.45;;;32.30;;
22603;SDS011;11469;49.024;8.246;2023-02-15T03:24:47;85.20;;;32.85;;
22603;SDS011;11469;49.024;8.246;2023-02-15T03:27:21;91.10;;;33.83;;
22603;SDS011;11469;49.024;8.246;2023-02-15T03:29:55;89.55;;;35.70;;
22603;SDS011;11469;49.024;8.246;2023-02-15T03:32:23;98.18;;;34.67;;
22603;SDS011;11469;49.024;8.246;2023-02-15T03:34:52;102.38;;;37.45;;
22603;SDS011;11469;49.024;8.246;2023-02-15T03:45:38;102.45;;;35.85;;
22603;SDS011;11469;49.024;8.246;2023-02-15T03:48:20;88.68;;;34.85;;
22603;SDS011;11469;49.024;8.246;2023-02-15T03:50:50;85.72;;;36.10;;
22603;SDS011;11469;49.024;8.246;2023-02-15T03:53:38;96.55;;;35.58;;
22603;SDS011;11469;49.024;8.246;2023-02-15T03:56:04;92.72;;;36.65;;
22603;SDS011;11469;49.024;8.246;2023-02-15T03:58:30;106.45;;;38.00;;
22603;SDS011;11469;49.024;8.246;2023-02-15T04:01:18;92.43;;;35.25;;
22603;SDS011;11469;49.024;8.246;2023-02-15T04:04:38;89.63;;;35.95;;
22603;SDS011;11469;49.024;8.246;2023-02-15T04:07:07;80.72;;;35.67;;
22603;SDS011;11469;49.024;8.246;2023-02-15T04:09:34;87.85;;;37.10;;
22603;SDS011;11469;49.024;8.246;2023-02-15T04:12:18;87.78;;;34.80;;
22603;SDS011;11469;49.024;8.246;2023-02-15T04:14:43;86.80;;;35.75;;
22603;SDS011;11469;49.024;8.246;2023-02-15T04:17:27;95.90;;;37.13;;
22603;SDS011;11469;49.024;8.246;2023-02-15T04:19:53;93.35;;;36.33;;
22603;SDS011;11469;49.024;8.246;2023-02-15T04:22:37;90.35;;;34.70;;
22603;SDS011;11469;49.024;8.246;2023-02-15T04:25:20;83.80;;;31.55;;
22603;SDS011;11469;49.024;8.246;2023-02-15T04:27:50;81.47;;;33.08;;
22603;SDS011;11469;49.024;8.246;2023-02-15T04:30:19;81.85;;;31.95;;
22603;SDS011;11469;49.024;8.246;2023-02-15T04:32:47;84.20;;;34.30;;
22603;SDS011;11469;49.024;8.246;2023-02-15T04:35:13;79.47;;;34.58;;
22603;SDS011;11469;49.024;8.246;2023-02-15T04:37:39;89.65;;;34.47;;
22603;SDS011;11469;49.024;8.246;2023-02-15T04:40:06;82.22;;;33.90;;
22603;SDS011;11469;49.024;8.246;2023-02-15T04:42:33;79.22;;;33.10;;
22603;SDS011;11469;49.024;8.246;2023-02-15T04:44:59;74.03;;;33.05;;
22603;SDS011;11469;49.024;8.246;2023-02-15T04:47:24;79.93;;;32.67;;
22603;SDS011;11469;49.024;8.246;2023-02-15T04:49:50;77.30;;;31.08;;
22603;SDS011;11469;49.024;8.246;2023-02-15T04:52:15;73.55;;;32.95;;
22603;SDS011;11469;49.024;8.246;2023-02-15T04:54:42;75.80;;;32.55;;
22603;SDS011;11469;49.024;8.246;2023-02-15T04:57:08;86.47;;;34.22;;
22603;SDS011;11469;49.024;8.246;2023-02-15T04:59:33;92.93;;;33.08;;
22603;SDS011;11469;49.024;8.246;2023-02-15T05:01:59;86.80;;;32.83;;
22603;SDS011;11469;49.024;8.246;2023-02-15T05:04:24;86.13;;;34.67;;
22603;SDS011;11469;49.024;8.246;2023-02-15T05:06:50;84.75;;;32.42;;
22603;SDS011;11469;49.024;8.246;2023-02-15T05:09:15;88.35;;;34.25;;
22603;SDS011;11469;49.024;8.246;2023-02-15T05:11:41;84.45;;;35.13;;
22603;SDS011;11469;49.024;8.246;2023-02-15T05:14:06;91.88;;;35.55;;
22603;SDS011;11469;49.024;8.246;2023-02-15T05:16:32;89.45;;;34.67;;
22603;SDS011;11469;49.024;8.246;2023-02-15T05:18:57;91.43;;;35.05;;
22603;SDS011;11469;49.024;8.246;2023-02-15T05:21:23;103.65;;;35.83;;
22603;SDS011;11469;49.024;8.246;2023-02-15T05:23:48;97.47;;;33.90;;
22603;SDS011;11469;49.024;8.246;2023-02-15T05:26:16;91.13;;;35.10;;
22603;SDS011;11469;49.024;8.246;2023-02-15T05:29:02;103.97;;;37.42;;
22603;SDS011;11469;49.024;8.246;2023-02-15T05:31:28;105.85;;;37.83;;
22603;SDS011;11469;49.024;8.246;2023-02-15T05:33:55;103.35;;;39.13;;
22603;SDS011;11469;49.024;8.246;2023-02-15T05:36:20;98.35;;;35.92;;
22603;SDS011;11469;49.024;8.246;2023-02-15T05:38:45;96.22;;;37.22;;
22603;SDS011;11469;49.024;8.246;2023-02-15T05:41:11;110.97;;;37.95;;
22603;SDS011;11469;49.024;8.246;2023-02-15T05:43:36;95.43;;;36.47;;
22603;SDS011;11469;49.024;8.246;2023-02-15T05:46:03;94.47;;;36.33;;
22603;SDS011;11469;49.024;8.246;2023-02-15T05:48:29;88.90;;;34.83;;
22603;SDS011;11469;49.024;8.246;2023-02-15T05:51:05;93.13;;;37.08;;
22603;SDS011;11469;49.024;8.246;2023-02-15T05:53:33;92.00;;;36.47;;
22603;SDS011;11469;49.024;8.246;2023-02-15T05:56:01;107.93;;;38.72;;
22603;SDS011;11469;49.024;8.246;2023-02-15T05:58:34;97.85;;;35.03;;
22603;SDS011;11469;49.024;8.246;2023-02-15T06:01:11;98.38;;;35.50;;
22603;SDS011;11469;49.024;8.246;2023-02-15T06:03:42;118.75;;;37.03;;
22603;SDS011;11469;49.024;8.246;2023-02-15T06:06:08;120.35;;;37.78;;
22603;SDS011;11469;49.024;8.246;2023-02-15T06:08:34;100.28;;;35.53;;
22603;SDS011;11469;49.024;8.246;2023-02-15T06:11:00;115.00;;;36.08;;
22603;SDS011;11469;49.024;8.246;2023-02-15T06:13:26;115.15;;;34.97;;
22603;SDS011;11469;49.024;8.246;2023-02-15T06:15:52;83.90;;;31.77;;
22603;SDS011;11469;49.024;8.246;2023-02-15T06:18:17;95.03;;;34.10;;
22603;SDS011;11469;49.024;8.246;2023-02-15T06:20:47;88.15;;;30.20;;
22603;SDS011;11469;49.024;8.246;2023-02-15T06:23:13;91.32;;;34.38;;
22603;SDS011;11469;49.024;8.246;2023-02-15T06:25:39;98.10;;;35.55;;
22603;SDS011;11469;49.024;8.246;2023-02-15T06:28:06;93.60;;;34.08;;
22603;SDS011;11469;49.024;8.246;2023-02-15T06:30:31;88.82;;;32.35;;
22603;SDS011;11469;49.024;8.246;2023-02-15T06:32:57;98.57;;;33.67;;
22603;SDS011;11469;49.024;8.246;2023-02-15T06:35:22;87.40;;;31.55;;
22603;SDS011;11469;49.024;8.246;2023-02-15T06:37:48;86.95;;;31.88;;
22603;SDS011;11469;49.024;8.246;2023-02-15T06:40:14;91.57;;;31.15;;
22603;SDS011;11469;49.024;8.246;2023-02-15T06:42:41;90.80;;;31.50;;
22603;SDS011;11469;49.024;8.246;2023-02-15T06:45:07;93.28;;;32.13;;
22603;SDS011;11469;49.024;8.246;2023-02-15T06:47:33;85.80;;;30.90;;
22603;SDS011;11469;49.024;8.246;2023-02-15T06:49:59;75.10;;;28.25;;
22603;SDS011;11469;49.024;8.246;2023-02-15T06:52:24;77.03;;;29.52;;
22603;SDS011;11469;49.024;8.246;2023-02-15T06:54:49;81.53;;;30.92;;
22603;SDS011;11469;49.024;8.246;2023-02-15T06:57:15;81.85;;;30.67;;
22603;SDS011;11469;49.024;8.246;2023-02-15T06:59:41;77.65;;;29.10;;
22603;SDS011;11469;49.024;8.246;2023-02-15T07:02:07;78.20;;;30.63;;
22603;SDS011;11469;49.024;8.246;2023-02-15T07:04:34;98.45;;;31.90;;
22603;SDS011;11469;49.024;8.246;2023-02-15T07:06:59;74.57;;;31.25;;
22603;SDS011;11469;49.024;8.246;2023-02-15T07:09:25;98.03;;;32.97;;
22603;SDS011;11469;49.024;8.246;2023-02-15T07:11:50;91.30;;;32.50;;
22603;SDS011;11469;49.024;8.246;2023-02-15T07:14:34;79.38;;;29.38;;
22603;SDS011;11469;49.024;8.246;2023-02-15T07:17:00;81.72;;;30.13;;
22603;SDS011;11469;49.024;8.246;2023-02-15T07:19:25;90.20;;;29.25;;
22603;SDS011;11469;49.024;8.246;2023-02-15T07:21:51;77.20;;;29.63;;
22603;SDS011;11469;49.024;8.246;2023-02-15T07:24:16;90.63;;;30.55;;
22603;SDS011;11469;49.024;8.246;2023-02-15T07:26:42;91.20;;;30.70;;
22603;SDS011;11469;49.024;8.246;2023-02-15T07:29:07;79.30;;;29.42;;
22603;SDS011;11469;49.024;8.246;2023-02-15T07:31:32;78.82;;;28.65;;
22603;SDS011;11469;49.024;8.246;2023-02-15T07:33:58;86.18;;;30.38;;
22603;SDS011;11469;49.024;8.246;2023-02-15T07:36:23;84.20;;;30.35;;
22603;SDS011;11469;49.024;8.246;2023-02-15T07:38:49;80.47;;;29.63;;
22603;SDS011;11469;49.024;8.246;2023-02-15T07:41:14;87.47;;;30.88;;
22603;SDS011;11469;49.024;8.246;2023-02-15T07:43:41;74.05;;;27.83;;
22603;SDS011;11469;49.024;8.246;2023-02-15T07:46:09;82.28;;;29.52;;
22603;SDS011;11469;49.024;8.246;2023-02-15T07:48:36;78.00;;;29.60;;
22603;SDS011;11469;49.024;8.246;2023-02-15T07:51:04;80.95;;;29.05;;
22603;SDS011;11469;49.024;8.246;2023-02-15T07:53:30;85.05;;;31.52;;
22603;SDS011;11469;49.024;8.246;2023-02-15T07:56:03;92.57;;;31.00;;
22603;SDS011;11469;49.024;8.246;2023-02-15T07:58:31;98.85;;;34.60;;
22603;SDS011;11469;49.024;8.246;2023-02-15T08:01:15;106.60;;;32.10;;
22603;SDS011;11469;49.024;8.246;2023-02-15T08:03:40;90.47;;;31.00;;
22603;SDS011;11469;49.024;8.246;2023-02-15T08:06:06;107.05;;;32.83;;
22603;SDS011;11469;49.024;8.246;2023-02-15T08:08:34;104.93;;;34.53;;
22603;SDS011;11469;49.024;8.246;2023-02-15T08:16:34;118.10;;;35.92;;
22603;SDS011;11469;49.024;8.246;2023-02-15T08:21:33;100.80;;;34.60;;
22603;SDS011;11469;49.024;8.246;2023-02-15T08:24:00;115.80;;;35.67;;
22603;SDS011;11469;49.024;8.246;2023-02-15T08:26:26;98.88;;;33.55;;
22603;SDS011;11469;49.024;8.246;2023-02-15T08:28:53;86.22;;;31.05;;
22603;SDS011;11469;49.024;8.246;2023-02-15T08:31:18;102.43;;;35.15;;
22603;SDS011;11469;49.024;8.246;2023-02-15T08:33:44;93.65;;;32.90;;
22603;SDS011;11469;49.024;8.246;2023-02-15T08:36:12;110.18;;;34.13;;
22603;SDS011;11469;49.024;8.246;2023-02-15T08:38:41;93.15;;;34.30;;
22603;SDS011;11469;49.024;8.246;2023-02-15T08:41:17;98.90;;;32.92;;
22603;SDS011;11469;49.024;8.246;2023-02-15T08:43:48;99.55;;;34.38;;
22603;SDS011;11469;49.024;8.246;2023-02-15T08:46:18;101.97;;;34.35;;
22603;SDS011;11469;49.024;8.246;2023-02-15T08:48:45;104.20;;;35.30;;
22603;SDS011;11469;49.024;8.246;2023-02-15T08:51:15;100.05;;;33.72;;
22603;SDS011;11469;49.024;8.246;2023-02-15T08:53:43;92.38;;;35.95;;
22603;SDS011;11469;49.024;8.246;2023-02-15T08:56:16;102.93;;;36.67;;
22603;SDS011;11469;49.024;8.246;2023-02-15T08:58:43;87.88;;;29.33;;
22603;SDS011;11469;49.024;8.246;2023-02-15T09:01:12;101.22;;;36.38;;
22603;SDS011;11469;49.024;8.246;2023-02-15T09:03:42;114.47;;;37.75;;
22603;SDS011;11469;49.024;8.246;2023-02-15T09:06:09;112.72;;;36.95;;
22603;SDS011;11469;49.024;8.246;2023-02-15T09:08:34;103.90;;;36.40;;
22603;SDS011;11469;49.024;8.246;2023-02-15T09:11:07;119.07;;;39.05;;
22603;SDS011;11469;49.024;8.246;2023-02-15T09:16:29;94.72;;;33.10;;
22603;SDS011;11469;49.024;8.246;2023-02-15T09:18:56;107.25;;;36.65;;
22603;SDS011;11469;49.024;8.246;2023-02-15T09:21:31;100.22;;;34.90;;
22603;SDS011;11469;49.024;8.246;2023-02-15T09:23:59;97.75;;;34.85;;
22603;SDS011;11469;49.024;8.246;2023-02-15T09:26:27;105.95;;;35.33;;
22603;SDS011;11469;49.024;8.246;2023-02-15T09:28:55;95.18;;;34.10;;
22603;SDS011;11469;49.024;8.246;2023-02-15T09:31:23;96.47;;;32.05;;
22603;SDS011;11469;49.024;8.246;2023-02-15T09:33:50;96.95;;;34.65;;
22603;SDS011;11469;49.024;8.246;2023-02-15T09:36:24;95.85;;;34.85;;
22603;SDS011;11469;49.024;8.246;2023-02-15T09:57:53;90.95;;;32.40;;
22603;SDS011;11469;49.024;8.246;2023-02-15T10:11:17;90.68;;;32.95;;
22603;SDS011;11469;49.024;8.246;2023-02-15T10:25:26;93.70;;;34.97;;
22603;SDS011;11469;49.024;8.246;2023-02-15T10:28:03;98.53;;;35.15;;
22603;SDS011;11469;49.024;8.246;2023-02-15T10:33:38;102.97;;;38.08;;
22603;SDS011;11469;49.024;8.246;2023-02-15T10:36:10;108.20;;;39.25;;
22603;SDS011;11469;49.024;8.246;2023-02-15T10:39:22;105.70;;;39.88;;
22603;SDS011;11469;49.024;8.246;2023-02-15T10:47:07;109.70;;;40.20;;
22603;SDS011;11469;49.024;8.246;2023-02-15T10:55:47;112.13;;;41.03;;
22603;SDS011;11469;49.024;8.246;2023-02-15T11:06:22;108.70;;;39.75;;
22603;SDS011;11469;49.024;8.246;2023-02-15T11:08:53;119.40;;;43.42;;
22603;SDS011;11469;49.024;8.246;2023-02-15T11:11:27;111.13;;;41.22;;
22603;SDS011;11469;49.024;8.246;2023-02-15T11:14:01;116.55;;;41.13;;
22603;SDS011;11469;49.024;8.246;2023-02-15T11:18:59;102.65;;;39.97;;
22603;SDS011;11469;49.024;8.246;2023-02-15T11:24:10;108.40;;;40.42;;
22603;SDS011;11469;49.024;8.246;2023-02-15T11:32:02;103.95;;;39.15;;
22603;SDS011;11469;49.024;8.246;2023-02-15T11:34:40;106.55;;;39.25;;
22603;SDS011;11469;49.024;8.246;2023-02-15T11:37:16;106.80;;;38.97;;
22603;SDS011;11469;49.024;8.246;2023-02-15T11:39:50;104.78;;;39.28;;
22603;SDS011;11469;49.024;8.246;2023-02-15T11:42:20;108.13;;;39.67;;
22603;SDS011;11469;49.024;8.246;2023-02-15T11:44:54;117.95;;;41.22;;
22603;SDS011;11469;49.024;8.246;2023-02-15T11:47:30;114.97;;;40.55;;
22603;SDS011;11469;49.024;8.246;2023-02-15T11:49:56;105.78;;;40.35;;
22603;SDS011;11469;49.024;8.246;2023-02-15T11:52:22;109.30;;;41.28;;
22603;SDS011;11469;49.024;8.246;2023-02-15T11:54:49;102.95;;;39.15;;
22603;SDS011;11469;49.024;8.246;2023-02-15T12:00:05;101.47;;;39.87;;
22603;SDS011;11469;49.024;8.246;2023-02-15T12:02:38;106.80;;;41.00;;
22603;SDS011;11469;49.024;8.246;2023-02-15T12:05:14;109.50;;;40.38;;
22603;SDS011;11469;49.024;8.246;2023-02-15T12:08:02;107.70;;;42.42;;
22603;SDS011;11469;49.024;8.246;2023-02-15T12:13:25;99.10;;;38.30;;
22603;SDS011;11469;49.024;8.246;2023-02-15T12:15:54;106.50;;;39.95;;
22603;SDS011;11469;49.024;8.246;2023-02-15T12:18:36;100.10;;;42.83;;
22603;SDS011;11469;49.024;8.246;2023-02-15T12:21:08;100.30;;;41.33;;
22603;SDS011;11469;49.024;8.246;2023-02-15T12:23:52;88.93;;;38.08;;
22603;SDS011;11469;49.024;8.246;2023-02-15T12:26:28;105.75;;;41.75;;
22603;SDS011;11469;49.024;8.246;2023-02-15T12:28:55;99.28;;;41.03;;
22603;SDS011;11469;49.024;8.246;2023-02-15T12:31:27;90.75;;;37.88;;
22603;SDS011;11469;49.024;8.246;2023-02-15T12:33:59;91.43;;;37.08;;
22603;SDS011;11469;49.024;8.246;2023-02-15T12:36:32;110.22;;;46.00;;
22603;SDS011;11469;49.024;8.246;2023-02-15T12:41:43;102.78;;;40.75;;
22603;SDS011;11469;49.024;8.246;2023-02-15T12:44:18;101.15;;;40.28;;
22603;SDS011;11469;49.024;8.246;2023-02-15T12:49:34;107.43;;;42.30;;
22603;SDS011;11469;49.024;8.246;2023-02-15T12:52:03;107.38;;;41.42;;
22603;SDS011;11469;49.024;8.246;2023-02-15T12:59:50;96.57;;;41.17;;
22603;SDS011;11469;49.024;8.246;2023-02-15T13:02:29;150.35;;;64.40;;
22603;SDS011;11469;49.024;8.246;2023-02-15T13:05:14;126.03;;;58.15;;
22603;SDS011;11469;49.024;8.246;2023-02-15T13:08:01;95.57;;;43.90;;
22603;SDS011;11469;49.024;8.246;2023-02-15T13:13:29;95.00;;;40.15;;
22603;SDS011;11469;49.024;8.246;2023-02-15T13:16:01;153.55;;;63.03;;
22603;SDS011;11469;49.024;8.246;2023-02-15T13:18:36;89.57;;;40.65;;
22603;SDS011;11469;49.024;8.246;2023-02-15T13:21:10;85.10;;;36.78;;
22603;SDS011;11469;49.024;8.246;2023-02-15T13:23:39;104.22;;;41.03;;
22603;SDS011;11469;49.024;8.246;2023-02-15T13:26:11;86.45;;;38.28;;
22603;SDS011;11469;49.024;8.246;2023-02-15T13:28:46;100.13;;;42.65;;
22603;SDS011;11469;49.024;8.246;2023-02-15T13:31:15;101.57;;;40.88;;
22603;SDS011;11469;49.024;8.246;2023-02-15T13:33:44;98.55;;;37.53;;
22603;SDS011;11469;49.024;8.246;2023-02-15T13:41:31;132.85;;;52.83;;
22603;SDS011;11469;49.024;8.246;2023-02-15T13:44:03;99.75;;;40.60;;
22603;SDS011;11469;49.024;8.246;2023-02-15T13:51:56;93.32;;;41.88;;
22603;SDS011;11469;49.024;8.246;2023-02-15T14:00:08;94.60;;;42.45;;
22603;SDS011;11469;49.024;8.246;2023-02-15T14:08:10;89.13;;;37.75;;
22603;SDS011;11469;49.024;8.246;2023-02-15T14:11:13;86.93;;;37.88;;
22603;SDS011;11469;49.024;8.246;2023-02-15T14:13:59;99.40;;;41.95;;
22603;SDS011;11469;49.024;8.246;2023-02-15T14:30:30;83.05;;;37.38;;
22603;SDS011;11469;49.024;8.246;2023-02-15T14:33:10;86.43;;;36.33;;
22603;SDS011;11469;49.024;8.246;2023-02-15T14:35:52;83.25;;;35.58;;
22603;SDS011;11469;49.024;8.246;2023-02-15T14:40:59;85.32;;;36.35;;
22603;SDS011;11469;49.024;8.246;2023-02-15T14:43:37;81.47;;;36.22;;
22603;SDS011;11469;49.024;8.246;2023-02-15T14:49:19;80.07;;;31.98;;
22603;SDS011;11469;49.024;8.246;2023-02-15T14:56:46;68.50;;;33.63;;
22603;SDS011;11469;49.024;8.246;2023-02-15T15:01:57;68.63;;;32.85;;
22603;SDS011;11469;49.024;8.246;2023-02-15T15:04:29;65.00;;;31.80;;
22603;SDS011;11469;49.024;8.246;2023-02-15T15:07:19;65.80;;;31.15;;
22603;SDS011;11469;49.024;8.246;2023-02-15T15:09:46;69.13;;;32.97;;
22603;SDS011;11469;49.024;8.246;2023-02-15T15:14:52;69.05;;;32.88;;
22603;SDS011;11469;49.024;8.246;2023-02-15T15:19:57;63.88;;;30.60;;
22603;SDS011;11469;49.024;8.246;2023-02-15T15:22:28;64.03;;;30.30;;
22603;SDS011;11469;49.024;8.246;2023-02-15T15:27:39;58.33;;;29.13;;
22603;SDS011;11469;49.024;8.246;2023-02-15T15:38:29;55.40;;;27.83;;
22603;SDS011;11469;49.024;8.246;2023-02-15T15:49:10;57.80;;;28.58;;
22603;SDS011;11469;49.024;8.246;2023-02-15T15:51:40;66.53;;;33.88;;
22603;SDS011;11469;49.024;8.246;2023-02-15T15:54:17;56.60;;;29.73;;
22603;SDS011;11469;49.024;8.246;2023-02-15T15:56:47;53.28;;;27.88;;
22603;SDS011;11469;49.024;8.246;2023-02-15T15:59:19;58.47;;;30.40;;
22603;SDS011;11469;49.024;8.246;2023-02-15T16:01:54;59.13;;;29.02;;
22603;SDS011;11469;49.024;8.246;2023-02-15T16:04:27;56.50;;;28.05;;
22603;SDS011;11469;49.024;8.246;2023-02-15T16:06:57;55.28;;;28.60;;
22603;SDS011;11469;49.024;8.246;2023-02-15T16:12:25;53.45;;;27.25;;
22603;SDS011;11469;49.024;8.246;2023-02-15T16:14:52;52.13;;;27.33;;
22603;SDS011;11469;49.024;8.246;2023-02-15T16:17:24;57.80;;;29.55;;
22603;SDS011;11469;49.024;8.246;2023-02-15T16:19:53;57.15;;;28.90;;
22603;SDS011;11469;49.024;8.246;2023-02-15T16:22:28;55.03;;;28.63;;
22603;SDS011;11469;49.024;8.246;2023-02-15T16:27:41;55.47;;;28.50;;
22603;SDS011;11469;49.024;8.246;2023-02-15T16:32:51;62.10;;;31.92;;
22603;SDS011;11469;49.024;8.246;2023-02-15T16:35:19;61.47;;;31.63;;
22603;SDS011;11469;49.024;8.246;2023-02-15T16:37:45;57.63;;;30.73;;
22603;SDS011;11469;49.024;8.246;2023-02-15T16:40:25;52.63;;;27.25;;
22603;SDS011;11469;49.024;8.246;2023-02-15T16:42:55;50.78;;;26.75;;
22603;SDS011;11469;49.024;8.246;2023-02-15T16:45:26;52.67;;;27.05;;
22603;SDS011;11469;49.024;8.246;2023-02-15T16:47:55;52.15;;;28.25;;
22603;SDS011;11469;49.024;8.246;2023-02-15T16:50:26;59.13;;;30.05;;
22603;SDS011;11469;49.024;8.246;2023-02-15T16:53:01;54.25;;;29.02;;
22603;SDS011;11469;49.024;8.246;2023-02-15T16:55:32;62.83;;;33.25;;
22603;SDS011;11469;49.024;8.246;2023-02-15T16:58:02;67.10;;;34.10;;
22603;SDS011;11469;49.024;8.246;2023-02-15T17:00:32;88.28;;;38.65;;
22603;SDS011;11469;49.024;8.246;2023-02-15T17:03:03;94.72;;;45.47;;
22603;SDS011;11469;49.024;8.246;2023-02-15T17:05:31;72.07;;;37.13;;
22603;SDS011;11469;49.024;8.246;2023-02-15T17:08:06;63.17;;;32.72;;
22603;SDS011;11469;49.024;8.246;2023-02-15T17:10:36;66.60;;;32.40;;
22603;SDS011;11469;49.024;8.246;2023-02-15T17:20:59;63.92;;;33.13;;
22603;SDS011;11469;49.024;8.246;2023-02-15T17:23:34;79.25;;;39.53;;
22603;SDS011;11469;49.024;8.246;2023-02-15T17:26:12;115.13;;;53.40;;
22603;SDS011;11469;49.024;8.246;2023-02-15T17:31:53;86.55;;;43.78;;
22603;SDS011;11469;49.024;8.246;2023-02-15T17:37:13;79.10;;;40.28;;
22603;SDS011;11469;49.024;8.246;2023-02-15T17:39:50;71.72;;;39.30;;
22603;SDS011;11469;49.024;8.246;2023-02-15T17:42:16;74.35;;;39.40;;
22603;SDS011;11469;49.024;8.246;2023-02-15T17:44:41;70.95;;;38.53;;
22603;SDS011;11469;49.024;8.246;2023-02-15T17:47:08;65.75;;;35.47;;
22603;SDS011;11469;49.024;8.246;2023-02-15T17:49:39;64.00;;;32.92;;
22603;SDS011;11469;49.024;8.246;2023-02-15T17:52:05;59.58;;;30.80;;
22603;SDS011;11469;49.024;8.246;2023-02-15T17:54:32;69.18;;;36.22;;
22603;SDS011;11469;49.024;8.246;2023-02-15T17:57:16;59.88;;;30.60;;
22603;SDS011;11469;49.024;8.246;2023-02-15T17:59:41;52.05;;;28.10;;
22603;SDS011;11469;49.024;8.246;2023-02-15T18:02:25;85.68;;;39.05;;
22603;SDS011;11469;49.024;8.246;2023-02-15T18:05:17;94.85;;;41.08;;
22603;SDS011;11469;49.024;8.246;2023-02-15T18:08:01;69.63;;;33.58;;
22603;SDS011;11469;49.024;8.246;2023-02-15T18:10:46;54.87;;;27.50;;
22603;SDS011;11469;49.024;8.246;2023-02-15T18:13:29;48.65;;;26.65;;
22603;SDS011;11469;49.024;8.246;2023-02-15T18:15:55;62.33;;;31.10;;
22603;SDS011;11469;49.024;8.246;2023-02-15T18:18:20;63.75;;;33.78;;
22603;SDS011;11469;49.024;8.246;2023-02-15T18:20:46;63.72;;;34.38;;
22603;SDS011;11469;49.024;8.246;2023-02-15T18:23:15;68.22;;;36.83;;
22603;SDS011;11469;49.024;8.246;2023-02-15T18:25:41;56.67;;;28.90;;
22603;SDS011;11469;49.024;8.246;2023-02-15T18:28:07;60.40;;;29.25;;
22603;SDS011;11469;49.024;8.246;2023-02-15T18:30:34;52.28;;;26.92;;
22603;SDS011;11469;49.024;8.246;2023-02-15T18:33:00;53.35;;;26.52;;
22603;SDS011;11469;49.024;8.246;2023-02-15T18:35:27;52.42;;;26.42;;
22603;SDS011;11469;49.024;8.246;2023-02-15T18:37:55;63.63;;;28.52;;